sensor_id;sensor_type;location;lat;lon;timestamp;temperature;humidity
28761;DHT22;15917;50.014;8.352;2024-01-07T00:01:55;5.80;99.90
28761;DHT22;15917;50.014;8.352;2024-01-07T00:04:21;5.80;99.90
28761;DHT22;15917;50.014;8.352;2024-01-07T00:06:47;5.80;99.90
28761;DHT22;15917;50.014;8.352;2024-01-07T00:09:12;5.80;99.90
28761;DHT22;15917;50.014;8.352;2024-01-07T00:11:38;5.80;99.90
28761;DHT22;15917;50.014;8.352;2024-01-07T00:14:04;5.80;99.90
28761;DHT22;15917;50.014;8.352;2024-01-07T00:16:30;5.70;99.90
28761;DHT22;15917;50.014;8.352;2024-01-07T00:18:55;5.70;99.90
28761;DHT22;15917;50.014;8.352;2024-01-07T00:21:21;5.70;99.90
28761;DHT22;15917;50.014;8.352;2024-01-07T00:23:46;5.60;99.90
28761;DHT22;15917;50.014;8.352;2024-01-07T00:26:12;5.60;99.90
28761;DHT22;15917;50.014;8.352;2024-01-07T00:28:38;5.60;99.90
28761;DHT22;15917;50.014;8.352;2024-01-07T00:31:03;5.60;99.90
28761;DHT22;15917;50.014;8.352;2024-01-07T00:33:31;5.60;99.90
28761;DHT22;15917;50.014;8.352;2024-01-07T00:35:56;5.50;99.90
28761;DHT22;15917;50.014;8.352;2024-01-07T00:38:22;5.50;99.90
28761;DHT22;15917;50.014;8.352;2024-01-07T00:40:48;5.50;99.90
28761;DHT22;15917;50.014;8.352;2024-01-07T00:43:14;5.50;99.90
28761;DHT22;15917;50.014;8.352;2024-01-07T00:45:39;5.50;99.90
28761;DHT22;15917;50.014;8.352;2024-01-07T00:48:05;5.50;99.90
28761;DHT22;15917;50.014;8.352;2024-01-07T00:50:31;5.50;99.90
28761;DHT22;15917;50.014;8.352;2024-01-07T00:52:56;5.50;99.90
28761;DHT22;15917;50.014;8.352;2024-01-07T00:55:22;5.50;99.90
28761;DHT22;15917;50.014;8.352;2024-01-07T00:57:49;5.50;99.90
28761;DHT22;15917;50.014;8.352;2024-01-07T01:00:15;5.50;99.90
28761;DHT22;15917;50.014;8.352;2024-01-07T01:02:41;5.50;99.90
28761;DHT22;15917;50.014;8.352;2024-01-07T01:05:07;5.40;99.90
28761;DHT22;15917;50.014;8.352;2024-01-07T01:07:33;5.40;99.90
28761;DHT22;15917;50.014;8.352;2024-01-07T01:09:58;5.40;99.90
28761;DHT22;15917;50.014;8.352;2024-01-07T01:12:24;5.40;99.90
28761;DHT22;15917;50.014;8.352;2024-01-07T01:14:50;5.40;99.90
28761;DHT22;15917;50.014;8.352;2024-01-07T01:17:15;5.40;99.90
28761;DHT22;15917;50.014;8.352;2024-01-07T01:19:41;5.30;99.90
28761;DHT22;15917;50.014;8.352;2024-01-07T01:22:06;5.30;99.90
28761;DHT22;15917;50.014;8.352;2024-01-07T01:24:32;5.30;99.90
28761;DHT22;15917;50.014;8.352;2024-01-07T01:26:58;5.30;99.90
28761;DHT22;15917;50.014;8.352;2024-01-07T01:29:24;5.30;99.90
28761;DHT22;15917;50.014;8.352;2024-01-07T01:31:50;5.40;99.90
28761;DHT22;15917;50.014;8.352;2024-01-07T01:34:15;5.40;99.90
28761;DHT22;15917;50.014;8.352;2024-01-07T01:36:41;5.40;99.90
28761;DHT22;15917;50.014;8.352;2024-01-07T01:39:06;5.40;99.90
28761;DHT22;15917;50.014;8.352;2024-01-07T01:41:32;5.30;99.90
28761;DHT22;15917;50.014;8.352;2024-01-07T01:43:59;5.30;99.90
28761;DHT22;15917;50.014;8.352;2024-01-07T01:46:25;5.30;99.90
28761;DHT22;15917;50.014;8.352;2024-01-07T01:48:51;5.30;99.90
28761;DHT22;15917;50.014;8.352;2024-01-07T01:51:17;5.30;99.90
28761;DHT22;15917;50.014;8.352;2024-01-07T01:53:43;5.30;99.90
28761;DHT22;15917;50.014;8.352;2024-01-07T01:56:09;5.30;99.90
28761;DHT22;15917;50.014;8.352;2024-01-07T01:58:36;5.20;99.90
28761;DHT22;15917;50.014;8.352;2024-01-07T02:01:03;5.20;99.90
28761;DHT22;15917;50.014;8.352;2024-01-07T02:03:29;5.20;99.90
28761;DHT22;15917;50.014;8.352;2024-01-07T02:05:56;5.20;99.90
28761;DHT22;15917;50.014;8.352;2024-01-07T02:08:22;5.20;99.90
28761;DHT22;15917;50.014;8.352;2024-01-07T02:10:48;5.10;99.90
28761;DHT22;15917;50.014;8.352;2024-01-07T02:13:14;5.10;99.90
28761;DHT22;15917;50.014;8.352;2024-01-07T02:15:40;5.20;99.90
28761;DHT22;15917;50.014;8.352;2024-01-07T02:18:05;5.20;99.90
28761;DHT22;15917;50.014;8.352;2024-01-07T02:20:31;5.20;99.90
28761;DHT22;15917;50.014;8.352;2024-01-07T02:22:56;5.10;99.90
28761;DHT22;15917;50.014;8.352;2024-01-07T02:25:24;5.20;99.90
28761;DHT22;15917;50.014;8.352;2024-01-07T02:27:49;5.20;99.90
28761;DHT22;15917;50.014;8.352;2024-01-07T02:30:15;5.20;99.90
28761;DHT22;15917;50.014;8.352;2024-01-07T02:32:40;5.20;99.90
28761;DHT22;15917;50.014;8.352;2024-01-07T02:35:06;5.20;99.90
28761;DHT22;15917;50.014;8.352;2024-01-07T02:37:32;5.20;99.90
28761;DHT22;15917;50.014;8.352;2024-01-07T02:39:57;5.20;99.90
28761;DHT22;15917;50.014;8.352;2024-01-07T02:42:23;5.20;99.90
28761;DHT22;15917;50.014;8.352;2024-01-07T02:44:49;5.20;99.90
28761;DHT22;15917;50.014;8.352;2024-01-07T02:47:14;5.20;99.90
28761;DHT22;15917;50.014;8.352;2024-01-07T02:49:40;5.20;99.90
28761;DHT22;15917;50.014;8.352;2024-01-07T02:52:05;5.20;99.90
28761;DHT22;15917;50.014;8.352;2024-01-07T02:54:31;5.20;99.90
28761;DHT22;15917;50.014;8.352;2024-01-07T02:56:56;5.10;99.90
28761;DHT22;15917;50.014;8.352;2024-01-07T02:59:22;5.10;99.90
28761;DHT22;15917;50.014;8.352;2024-01-07T03:01:47;5.00;99.90
28761;DHT22;15917;50.014;8.352;2024-01-07T03:04:14;5.10;99.90
28761;DHT22;15917;50.014;8.352;2024-01-07T03:06:40;5.00;99.90
28761;DHT22;15917;50.014;8.352;2024-01-07T03:09:06;5.00;99.90
28761;DHT22;15917;50.014;8.352;2024-01-07T03:11:32;5.00;99.90
28761;DHT22;15917;50.014;8.352;2024-01-07T03:13:58;5.10;99.90
28761;DHT22;15917;50.014;8.352;2024-01-07T03:16:25;5.10;99.90
28761;DHT22;15917;50.014;8.352;2024-01-07T03:18:50;5.10;99.90
28761;DHT22;15917;50.014;8.352;2024-01-07T03:21:21;5.10;99.90
28761;DHT22;15917;50.014;8.352;2024-01-07T03:23:48;5.10;99.90
28761;DHT22;15917;50.014;8.352;2024-01-07T03:26:15;5.10;99.90
28761;DHT22;15917;50.014;8.352;2024-01-07T03:28:41;5.10;99.90
28761;DHT22;15917;50.014;8.352;2024-01-07T03:31:13;5.10;99.90
28761;DHT22;15917;50.014;8.352;2024-01-07T03:33:40;5.10;99.90
28761;DHT22;15917;50.014;8.352;2024-01-07T03:36:10;5.10;99.90
28761;DHT22;15917;50.014;8.352;2024-01-07T03:38:37;5.10;99.90
28761;DHT22;15917;50.014;8.352;2024-01-07T03:41:03;5.00;99.90
28761;DHT22;15917;50.014;8.352;2024-01-07T03:43:28;5.00;99.90
28761;DHT22;15917;50.014;8.352;2024-01-07T03:45:54;5.00;99.90
28761;DHT22;15917;50.014;8.352;2024-01-07T03:48:20;5.10;99.90
28761;DHT22;15917;50.014;8.352;2024-01-07T03:50:45;5.00;99.90
28761;DHT22;15917;50.014;8.352;2024-01-07T03:53:11;5.00;99.90
28761;DHT22;15917;50.014;8.352;2024-01-07T03:55:36;5.00;99.90
28761;DHT22;15917;50.014;8.352;2024-01-07T03:58:03;5.00;99.90
28761;DHT22;15917;50.014;8.352;2024-01-07T04:00:29;5.00;99.90
28761;DHT22;15917;50.014;8.352;2024-01-07T04:02:54;4.90;99.90
28761;DHT22;15917;50.014;8.352;2024-01-07T04:05:20;5.00;99.90
28761;DHT22;15917;50.014;8.352;2024-01-07T04:07:45;5.00;99.90
28761;DHT22;15917;50.014;8.352;2024-01-07T04:10:11;5.00;99.90
28761;DHT22;15917;50.014;8.352;2024-01-07T04:12:37;5.00;99.90
28761;DHT22;15917;50.014;8.352;2024-01-07T04:15:03;5.00;99.90
28761;DHT22;15917;50.014;8.352;2024-01-07T04:17:29;5.00;99.90
28761;DHT22;15917;50.014;8.352;2024-01-07T04:19:55;4.90;99.90
28761;DHT22;15917;50.014;8.352;2024-01-07T04:22:21;4.90;99.90
28761;DHT22;15917;50.014;8.352;2024-01-07T04:24:46;4.90;99.90
28761;DHT22;15917;50.014;8.352;2024-01-07T04:27:12;5.00;99.90
28761;DHT22;15917;50.014;8.352;2024-01-07T04:29:38;4.90;99.90
28761;DHT22;15917;50.014;8.352;2024-01-07T04:32:03;4.90;99.90
28761;DHT22;15917;50.014;8.352;2024-01-07T04:34:29;4.90;99.90
28761;DHT22;15917;50.014;8.352;2024-01-07T04:36:55;5.00;99.90
28761;DHT22;15917;50.014;8.352;2024-01-07T04:39:20;5.00;99.90
28761;DHT22;15917;50.014;8.352;2024-01-07T04:41:46;5.00;99.90
28761;DHT22;15917;50.014;8.352;2024-01-07T04:44:11;5.00;99.90
28761;DHT22;15917;50.014;8.352;2024-01-07T04:46:38;5.00;99.90
28761;DHT22;15917;50.014;8.352;2024-01-07T04:49:04;5.00;99.90
28761;DHT22;15917;50.014;8.352;2024-01-07T04:51:31;5.00;99.90
28761;DHT22;15917;50.014;8.352;2024-01-07T04:53:57;5.00;99.90
28761;DHT22;15917;50.014;8.352;2024-01-07T04:56:23;5.00;99.90
28761;DHT22;15917;50.014;8.352;2024-01-07T04:58:48;5.00;99.90
28761;DHT22;15917;50.014;8.352;2024-01-07T05:01:14;5.00;99.90
28761;DHT22;15917;50.014;8.352;2024-01-07T05:03:40;5.00;99.90
28761;DHT22;15917;50.014;8.352;2024-01-07T05:06:08;5.00;99.90
28761;DHT22;15917;50.014;8.352;2024-01-07T05:08:34;5.00;99.90
28761;DHT22;15917;50.014;8.352;2024-01-07T05:10:59;5.10;99.90
28761;DHT22;15917;50.014;8.352;2024-01-07T05:13:25;5.00;99.90
28761;DHT22;15917;50.014;8.352;2024-01-07T05:15:50;5.00;99.90
28761;DHT22;15917;50.014;8.352;2024-01-07T05:18:25;5.00;99.90
28761;DHT22;15917;50.014;8.352;2024-01-07T05:20:51;5.00;99.90
28761;DHT22;15917;50.014;8.352;2024-01-07T05:23:16;5.10;99.90
28761;DHT22;15917;50.014;8.352;2024-01-07T05:25:43;5.00;99.90
28761;DHT22;15917;50.014;8.352;2024-01-07T05:28:13;5.00;99.90
28761;DHT22;15917;50.014;8.352;2024-01-07T05:30:40;5.00;99.90
28761;DHT22;15917;50.014;8.352;2024-01-07T05:33:06;5.00;99.90
28761;DHT22;15917;50.014;8.352;2024-01-07T05:35:32;5.00;99.90
28761;DHT22;15917;50.014;8.352;2024-01-07T05:37:57;5.00;99.90
28761;DHT22;15917;50.014;8.352;2024-01-07T05:40:23;5.00;99.90
28761;DHT22;15917;50.014;8.352;2024-01-07T05:42:49;5.10;99.90
28761;DHT22;15917;50.014;8.352;2024-01-07T05:45:14;5.10;99.90
28761;DHT22;15917;50.014;8.352;2024-01-07T05:47:40;5.20;99.90
28761;DHT22;15917;50.014;8.352;2024-01-07T05:50:07;5.10;99.90
28761;DHT22;15917;50.014;8.352;2024-01-07T05:52:32;5.20;99.90
28761;DHT22;15917;50.014;8.352;2024-01-07T05:54:58;5.20;99.90
28761;DHT22;15917;50.014;8.352;2024-01-07T05:57:24;5.20;99.90
28761;DHT22;15917;50.014;8.352;2024-01-07T05:59:49;5.20;99.90
28761;DHT22;15917;50.014;8.352;2024-01-07T06:02:17;5.30;99.90
28761;DHT22;15917;50.014;8.352;2024-01-07T06:04:42;5.30;99.90
28761;DHT22;15917;50.014;8.352;2024-01-07T06:07:08;5.30;99.90
28761;DHT22;15917;50.014;8.352;2024-01-07T06:09:34;5.30;99.90
28761;DHT22;15917;50.014;8.352;2024-01-07T06:12:00;5.30;99.90
28761;DHT22;15917;50.014;8.352;2024-01-07T06:14:25;5.30;99.90
28761;DHT22;15917;50.014;8.352;2024-01-07T06:16:51;5.40;99.90
28761;DHT22;15917;50.014;8.352;2024-01-07T06:19:18;5.30;99.90
28761;DHT22;15917;50.014;8.352;2024-01-07T06:21:43;5.40;99.90
28761;DHT22;15917;50.014;8.352;2024-01-07T06:24:09;5.40;99.90
28761;DHT22;15917;50.014;8.352;2024-01-07T06:26:35;5.40;99.90
28761;DHT22;15917;50.014;8.352;2024-01-07T06:29:00;5.40;99.90
28761;DHT22;15917;50.014;8.352;2024-01-07T06:31:26;5.40;99.90
28761;DHT22;15917;50.014;8.352;2024-01-07T06:33:52;5.40;99.90
28761;DHT22;15917;50.014;8.352;2024-01-07T06:36:18;5.30;99.90
28761;DHT22;15917;50.014;8.352;2024-01-07T06:38:44;5.40;99.90
28761;DHT22;15917;50.014;8.352;2024-01-07T06:41:11;5.30;99.90
28761;DHT22;15917;50.014;8.352;2024-01-07T06:43:38;5.30;99.90
28761;DHT22;15917;50.014;8.352;2024-01-07T06:46:04;5.30;99.90
28761;DHT22;15917;50.014;8.352;2024-01-07T06:48:29;5.30;99.90
28761;DHT22;15917;50.014;8.352;2024-01-07T06:50:55;5.30;99.90
28761;DHT22;15917;50.014;8.352;2024-01-07T06:53:21;5.30;99.90
28761;DHT22;15917;50.014;8.352;2024-01-07T06:55:47;5.30;99.90
28761;DHT22;15917;50.014;8.352;2024-01-07T06:58:12;5.30;99.90
28761;DHT22;15917;50.014;8.352;2024-01-07T07:00:38;5.20;99.90
28761;DHT22;15917;50.014;8.352;2024-01-07T07:03:04;5.20;99.90
28761;DHT22;15917;50.014;8.352;2024-01-07T07:05:31;5.20;99.90
28761;DHT22;15917;50.014;8.352;2024-01-07T07:07:57;5.20;99.90
28761;DHT22;15917;50.014;8.352;2024-01-07T07:10:22;5.20;99.90
28761;DHT22;15917;50.014;8.352;2024-01-07T07:12:48;5.20;99.90
28761;DHT22;15917;50.014;8.352;2024-01-07T07:15:16;5.20;99.90
28761;DHT22;15917;50.014;8.352;2024-01-07T07:17:42;5.20;99.90
28761;DHT22;15917;50.014;8.352;2024-01-07T07:20:08;5.10;99.90
28761;DHT22;15917;50.014;8.352;2024-01-07T07:22:34;5.00;99.90
28761;DHT22;15917;50.014;8.352;2024-01-07T07:25:00;5.00;99.90
28761;DHT22;15917;50.014;8.352;2024-01-07T07:27:26;5.00;99.90
28761;DHT22;15917;50.014;8.352;2024-01-07T07:29:52;5.00;99.90
28761;DHT22;15917;50.014;8.352;2024-01-07T07:32:17;5.00;99.90
28761;DHT22;15917;50.014;8.352;2024-01-07T07:34:43;5.00;99.90
28761;DHT22;15917;50.014;8.352;2024-01-07T07:37:09;4.90;99.90
28761;DHT22;15917;50.014;8.352;2024-01-07T07:39:35;4.90;99.90
28761;DHT22;15917;50.014;8.352;2024-01-07T07:42:01;4.80;99.90
28761;DHT22;15917;50.014;8.352;2024-01-07T07:44:26;4.80;99.90
28761;DHT22;15917;50.014;8.352;2024-01-07T07:46:52;4.80;99.90
28761;DHT22;15917;50.014;8.352;2024-01-07T07:49:17;4.80;99.90
28761;DHT22;15917;50.014;8.352;2024-01-07T07:51:43;4.80;99.90
28761;DHT22;15917;50.014;8.352;2024-01-07T07:54:09;4.80;99.90
28761;DHT22;15917;50.014;8.352;2024-01-07T07:56:35;4.80;99.90
28761;DHT22;15917;50.014;8.352;2024-01-07T07:59:02;4.90;99.90
28761;DHT22;15917;50.014;8.352;2024-01-07T08:01:27;4.90;99.90
28761;DHT22;15917;50.014;8.352;2024-01-07T08:03:53;4.80;99.90
28761;DHT22;15917;50.014;8.352;2024-01-07T08:06:19;4.80;99.90
28761;DHT22;15917;50.014;8.352;2024-01-07T08:08:45;4.80;99.90
28761;DHT22;15917;50.014;8.352;2024-01-07T08:11:10;5.10;99.90
28761;DHT22;15917;50.014;8.352;2024-01-07T08:13:37;6.90;99.90
28761;DHT22;15917;50.014;8.352;2024-01-07T08:16:04;7.80;99.90
28761;DHT22;15917;50.014;8.352;2024-01-07T08:18:29;7.20;99.90
28761;DHT22;15917;50.014;8.352;2024-01-07T08:20:55;6.70;99.90
28761;DHT22;15917;50.014;8.352;2024-01-07T08:23:21;6.30;99.90
28761;DHT22;15917;50.014;8.352;2024-01-07T08:25:46;5.90;99.90
28761;DHT22;15917;50.014;8.352;2024-01-07T08:28:12;5.60;99.90
28761;DHT22;15917;50.014;8.352;2024-01-07T08:30:38;5.40;99.90
28761;DHT22;15917;50.014;8.352;2024-01-07T08:33:03;5.20;99.90
28761;DHT22;15917;50.014;8.352;2024-01-07T08:35:29;5.10;99.90
28761;DHT22;15917;50.014;8.352;2024-01-07T08:37:54;5.00;99.90
28761;DHT22;15917;50.014;8.352;2024-01-07T08:40:20;5.00;99.90
28761;DHT22;15917;50.014;8.352;2024-01-07T08:42:45;4.90;99.90
28761;DHT22;15917;50.014;8.352;2024-01-07T08:45:11;4.90;99.90
28761;DHT22;15917;50.014;8.352;2024-01-07T08:47:37;4.90;99.90
28761;DHT22;15917;50.014;8.352;2024-01-07T08:50:03;4.90;99.90
28761;DHT22;15917;50.014;8.352;2024-01-07T08:52:29;4.90;99.90
28761;DHT22;15917;50.014;8.352;2024-01-07T08:54:54;4.80;99.90
28761;DHT22;15917;50.014;8.352;2024-01-07T08:57:20;4.80;99.90
28761;DHT22;15917;50.014;8.352;2024-01-07T08:59:46;4.80;99.90
28761;DHT22;15917;50.014;8.352;2024-01-07T09:02:12;4.80;99.90
28761;DHT22;15917;50.014;8.352;2024-01-07T09:04:38;4.70;99.90
28761;DHT22;15917;50.014;8.352;2024-01-07T09:07:04;4.70;99.90
28761;DHT22;15917;50.014;8.352;2024-01-07T09:09:30;4.70;99.90
28761;DHT22;15917;50.014;8.352;2024-01-07T09:11:55;4.70;99.90
28761;DHT22;15917;50.014;8.352;2024-01-07T09:14:23;4.70;99.90
28761;DHT22;15917;50.014;8.352;2024-01-07T09:16:50;4.60;99.90
28761;DHT22;15917;50.014;8.352;2024-01-07T09:19:16;4.70;99.90
28761;DHT22;15917;50.014;8.352;2024-01-07T09:21:43;4.70;99.90
28761;DHT22;15917;50.014;8.352;2024-01-07T09:24:09;5.60;99.90
28761;DHT22;15917;50.014;8.352;2024-01-07T09:26:35;7.10;99.90
28761;DHT22;15917;50.014;8.352;2024-01-07T09:29:00;8.20;99.90
28761;DHT22;15917;50.014;8.352;2024-01-07T09:31:27;8.50;99.90
28761;DHT22;15917;50.014;8.352;2024-01-07T09:33:52;7.70;99.90
28761;DHT22;15917;50.014;8.352;2024-01-07T09:36:18;7.00;99.90
28761;DHT22;15917;50.014;8.352;2024-01-07T09:38:44;6.40;99.90
28761;DHT22;15917;50.014;8.352;2024-01-07T09:41:10;6.10;99.90
28761;DHT22;15917;50.014;8.352;2024-01-07T09:43:35;5.70;99.90
28761;DHT22;15917;50.014;8.352;2024-01-07T09:46:02;5.50;99.90
28761;DHT22;15917;50.014;8.352;2024-01-07T09:48:29;5.30;99.90
28761;DHT22;15917;50.014;8.352;2024-01-07T09:50:55;5.20;99.90
28761;DHT22;15917;50.014;8.352;2024-01-07T09:53:25;5.10;99.90
28761;DHT22;15917;50.014;8.352;2024-01-07T09:56:11;5.10;99.90
28761;DHT22;15917;50.014;8.352;2024-01-07T09:58:41;5.00;99.90
28761;DHT22;15917;50.014;8.352;2024-01-07T10:01:08;4.90;99.90
28761;DHT22;15917;50.014;8.352;2024-01-07T10:03:33;4.80;99.90
28761;DHT22;15917;50.014;8.352;2024-01-07T10:05:59;4.90;99.90
28761;DHT22;15917;50.014;8.352;2024-01-07T10:08:25;4.90;99.90
28761;DHT22;15917;50.014;8.352;2024-01-07T10:10:50;4.90;99.90
28761;DHT22;15917;50.014;8.352;2024-01-07T10:13:16;5.30;99.90
28761;DHT22;15917;50.014;8.352;2024-01-07T10:15:42;5.20;99.90
28761;DHT22;15917;50.014;8.352;2024-01-07T10:18:07;5.60;99.90
28761;DHT22;15917;50.014;8.352;2024-01-07T10:20:34;5.50;99.90
28761;DHT22;15917;50.014;8.352;2024-01-07T10:23:03;5.40;99.90
28761;DHT22;15917;50.014;8.352;2024-01-07T10:25:31;5.80;99.90
28761;DHT22;15917;50.014;8.352;2024-01-07T10:28:01;5.60;99.90
28761;DHT22;15917;50.014;8.352;2024-01-07T10:30:28;5.20;99.90
28761;DHT22;15917;50.014;8.352;2024-01-07T10:32:56;5.10;99.90
28761;DHT22;15917;50.014;8.352;2024-01-07T10:35:28;4.90;99.90
28761;DHT22;15917;50.014;8.352;2024-01-07T10:37:54;4.80;99.90
28761;DHT22;15917;50.014;8.352;2024-01-07T10:40:20;4.70;99.90
28761;DHT22;15917;50.014;8.352;2024-01-07T10:42:46;4.70;99.90
28761;DHT22;15917;50.014;8.352;2024-01-07T10:45:13;4.60;99.90
28761;DHT22;15917;50.014;8.352;2024-01-07T10:47:40;4.60;99.90
28761;DHT22;15917;50.014;8.352;2024-01-07T10:50:11;4.50;99.90
28761;DHT22;15917;50.014;8.352;2024-01-07T10:52:39;4.80;99.90
28761;DHT22;15917;50.014;8.352;2024-01-07T10:55:09;4.70;99.90
28761;DHT22;15917;50.014;8.352;2024-01-07T10:57:46;4.60;99.90
28761;DHT22;15917;50.014;8.352;2024-01-07T11:00:16;4.60;99.90
28761;DHT22;15917;50.014;8.352;2024-01-07T11:05:33;4.50;99.90
28761;DHT22;15917;50.014;8.352;2024-01-07T11:11:09;4.50;99.90
28761;DHT22;15917;50.014;8.352;2024-01-07T11:13:38;4.50;99.90
28761;DHT22;15917;50.014;8.352;2024-01-07T11:16:06;4.60;99.90
28761;DHT22;15917;50.014;8.352;2024-01-07T11:18:38;4.50;99.90
28761;DHT22;15917;50.014;8.352;2024-01-07T11:21:05;4.50;99.90
28761;DHT22;15917;50.014;8.352;2024-01-07T11:26:06;4.40;99.90
28761;DHT22;15917;50.014;8.352;2024-01-07T11:31:17;4.30;99.90
28761;DHT22;15917;50.014;8.352;2024-01-07T11:33:47;4.30;99.90
28761;DHT22;15917;50.014;8.352;2024-01-07T11:36:14;4.50;99.90
28761;DHT22;15917;50.014;8.352;2024-01-07T11:38:50;4.60;99.90
28761;DHT22;15917;50.014;8.352;2024-01-07T11:41:16;4.60;99.90
28761;DHT22;15917;50.014;8.352;2024-01-07T11:43:56;4.60;99.90
28761;DHT22;15917;50.014;8.352;2024-01-07T11:46:25;4.70;99.90
28761;DHT22;15917;50.014;8.352;2024-01-07T11:48:53;4.80;99.90
28761;DHT22;15917;50.014;8.352;2024-01-07T11:51:19;4.70;99.90
28761;DHT22;15917;50.014;8.352;2024-01-07T11:53:47;4.70;99.90
28761;DHT22;15917;50.014;8.352;2024-01-07T11:56:13;4.60;99.90
28761;DHT22;15917;50.014;8.352;2024-01-07T11:58:40;4.60;99.90
28761;DHT22;15917;50.014;8.352;2024-01-07T12:01:07;4.60;99.90
28761;DHT22;15917;50.014;8.352;2024-01-07T12:03:32;4.60;99.90
28761;DHT22;15917;50.014;8.352;2024-01-07T12:05:59;4.70;99.90
28761;DHT22;15917;50.014;8.352;2024-01-07T12:08:25;4.80;99.90
28761;DHT22;15917;50.014;8.352;2024-01-07T12:10:50;4.60;99.90
28761;DHT22;15917;50.014;8.352;2024-01-07T12:13:17;4.60;99.90
28761;DHT22;15917;50.014;8.352;2024-01-07T12:15:43;4.50;99.90
28761;DHT22;15917;50.014;8.352;2024-01-07T12:18:09;4.40;99.90
28761;DHT22;15917;50.014;8.352;2024-01-07T12:20:35;4.40;99.90
28761;DHT22;15917;50.014;8.352;2024-01-07T12:23:07;4.40;99.90
28761;DHT22;15917;50.014;8.352;2024-01-07T12:25:33;4.30;99.90
28761;DHT22;15917;50.014;8.352;2024-01-07T12:27:59;4.30;99.90
28761;DHT22;15917;50.014;8.352;2024-01-07T12:30:25;4.60;99.90
28761;DHT22;15917;50.014;8.352;2024-01-07T12:32:55;6.10;99.90
28761;DHT22;15917;50.014;8.352;2024-01-07T12:35:20;6.30;99.90
28761;DHT22;15917;50.014;8.352;2024-01-07T12:37:47;5.80;99.90
28761;DHT22;15917;50.014;8.352;2024-01-07T12:40:13;5.30;99.90
28761;DHT22;15917;50.014;8.352;2024-01-07T12:42:39;5.00;99.90
28761;DHT22;15917;50.014;8.352;2024-01-07T12:45:11;4.70;99.90
28761;DHT22;15917;50.014;8.352;2024-01-07T12:47:37;4.40;99.90
28761;DHT22;15917;50.014;8.352;2024-01-07T12:50:03;4.30;99.90
28761;DHT22;15917;50.014;8.352;2024-01-07T12:52:28;4.30;99.90
28761;DHT22;15917;50.014;8.352;2024-01-07T12:54:54;4.20;99.90
28761;DHT22;15917;50.014;8.352;2024-01-07T12:57:21;4.20;99.90
28761;DHT22;15917;50.014;8.352;2024-01-07T12:59:47;4.10;99.90
28761;DHT22;15917;50.014;8.352;2024-01-07T13:02:13;4.10;99.90
28761;DHT22;15917;50.014;8.352;2024-01-07T13:04:39;4.10;99.90
28761;DHT22;15917;50.014;8.352;2024-01-07T13:07:04;4.10;99.90
28761;DHT22;15917;50.014;8.352;2024-01-07T13:09:30;4.10;99.90
28761;DHT22;15917;50.014;8.352;2024-01-07T13:11:55;4.00;99.90
28761;DHT22;15917;50.014;8.352;2024-01-07T13:14:21;4.10;99.90
28761;DHT22;15917;50.014;8.352;2024-01-07T13:16:46;4.00;99.90
28761;DHT22;15917;50.014;8.352;2024-01-07T13:19:13;3.90;99.90
28761;DHT22;15917;50.014;8.352;2024-01-07T13:21:38;3.90;99.90
28761;DHT22;15917;50.014;8.352;2024-01-07T13:24:05;3.90;99.90
28761;DHT22;15917;50.014;8.352;2024-01-07T13:26:30;3.80;99.90
28761;DHT22;15917;50.014;8.352;2024-01-07T13:28:56;3.80;99.90
28761;DHT22;15917;50.014;8.352;2024-01-07T13:31:21;3.80;99.90
28761;DHT22;15917;50.014;8.352;2024-01-07T13:33:49;3.80;99.90
28761;DHT22;15917;50.014;8.352;2024-01-07T13:36:14;3.70;99.90
28761;DHT22;15917;50.014;8.352;2024-01-07T13:38:40;3.70;99.90
28761;DHT22;15917;50.014;8.352;2024-01-07T13:41:08;3.70;99.90
28761;DHT22;15917;50.014;8.352;2024-01-07T13:43:34;3.60;99.90
28761;DHT22;15917;50.014;8.352;2024-01-07T13:45:59;3.60;99.90
28761;DHT22;15917;50.014;8.352;2024-01-07T13:48:28;3.50;99.90
28761;DHT22;15917;50.014;8.352;2024-01-07T13:50:54;3.40;99.90
28761;DHT22;15917;50.014;8.352;2024-01-07T13:53:20;3.40;99.90
28761;DHT22;15917;50.014;8.352;2024-01-07T13:55:46;3.40;99.90
28761;DHT22;15917;50.014;8.352;2024-01-07T13:58:12;3.40;99.90
28761;DHT22;15917;50.014;8.352;2024-01-07T14:00:38;3.40;99.90
28761;DHT22;15917;50.014;8.352;2024-01-07T14:03:04;3.40;99.90
28761;DHT22;15917;50.014;8.352;2024-01-07T14:05:30;3.40;99.90
28761;DHT22;15917;50.014;8.352;2024-01-07T14:07:55;4.10;99.90
28761;DHT22;15917;50.014;8.352;2024-01-07T14:10:21;4.00;99.90
28761;DHT22;15917;50.014;8.352;2024-01-07T14:12:46;3.90;99.90
28761;DHT22;15917;50.014;8.352;2024-01-07T14:15:12;3.70;99.90
28761;DHT22;15917;50.014;8.352;2024-01-07T14:17:38;3.60;99.90
28761;DHT22;15917;50.014;8.352;2024-01-07T14:20:06;3.50;99.90
28761;DHT22;15917;50.014;8.352;2024-01-07T14:22:33;3.50;99.90
28761;DHT22;15917;50.014;8.352;2024-01-07T14:24:58;3.40;99.90
28761;DHT22;15917;50.014;8.352;2024-01-07T14:27:24;3.40;99.90
28761;DHT22;15917;50.014;8.352;2024-01-07T14:29:49;3.40;99.90
28761;DHT22;15917;50.014;8.352;2024-01-07T14:32:15;3.30;99.90
28761;DHT22;15917;50.014;8.352;2024-01-07T14:34:41;3.30;99.90
28761;DHT22;15917;50.014;8.352;2024-01-07T14:37:08;3.20;99.90
28761;DHT22;15917;50.014;8.352;2024-01-07T14:39:36;3.20;99.90
28761;DHT22;15917;50.014;8.352;2024-01-07T14:42:02;3.10;99.90
28761;DHT22;15917;50.014;8.352;2024-01-07T14:44:28;3.10;99.90
28761;DHT22;15917;50.014;8.352;2024-01-07T14:46:54;3.10;99.90
28761;DHT22;15917;50.014;8.352;2024-01-07T14:49:19;3.00;99.90
28761;DHT22;15917;50.014;8.352;2024-01-07T14:51:45;3.00;99.90
28761;DHT22;15917;50.014;8.352;2024-01-07T14:54:10;3.00;99.90
28761;DHT22;15917;50.014;8.352;2024-01-07T14:56:36;3.00;99.90
28761;DHT22;15917;50.014;8.352;2024-01-07T14:59:02;3.00;99.90
28761;DHT22;15917;50.014;8.352;2024-01-07T15:01:27;3.00;99.90
28761;DHT22;15917;50.014;8.352;2024-01-07T15:03:54;3.00;99.90
28761;DHT22;15917;50.014;8.352;2024-01-07T15:06:19;3.00;99.90
28761;DHT22;15917;50.014;8.352;2024-01-07T15:08:45;3.00;99.90
28761;DHT22;15917;50.014;8.352;2024-01-07T15:11:13;2.90;99.90
28761;DHT22;15917;50.014;8.352;2024-01-07T15:13:39;2.80;99.90
28761;DHT22;15917;50.014;8.352;2024-01-07T15:16:05;2.70;99.90
28761;DHT22;15917;50.014;8.352;2024-01-07T15:18:31;2.70;99.90
28761;DHT22;15917;50.014;8.352;2024-01-07T15:20:57;2.60;99.90
28761;DHT22;15917;50.014;8.352;2024-01-07T15:23:23;2.60;99.90
28761;DHT22;15917;50.014;8.352;2024-01-07T15:25:48;2.50;99.90
28761;DHT22;15917;50.014;8.352;2024-01-07T15:28:14;2.50;99.90
28761;DHT22;15917;50.014;8.352;2024-01-07T15:30:39;2.50;99.90
28761;DHT22;15917;50.014;8.352;2024-01-07T15:33:05;2.30;99.90
28761;DHT22;15917;50.014;8.352;2024-01-07T15:35:30;2.30;99.90
28761;DHT22;15917;50.014;8.352;2024-01-07T15:37:56;2.10;99.90
28761;DHT22;15917;50.014;8.352;2024-01-07T15:40:23;2.10;99.90
28761;DHT22;15917;50.014;8.352;2024-01-07T15:42:50;2.10;99.90
28761;DHT22;15917;50.014;8.352;2024-01-07T15:45:16;2.10;99.90
28761;DHT22;15917;50.014;8.352;2024-01-07T15:47:42;2.10;99.90
28761;DHT22;15917;50.014;8.352;2024-01-07T15:50:08;1.90;99.90